Time;durP1;ratioP1;P1;durP2;ratioP2;P2;SDS_P1;SDS_P2;PMS_P1;PMS_P2;Temp;Humidity;BMP_temperature;BMP_pressure;BME280_temperature;BME280_humidity;BME280_pressure;Samples;Min_cycle;Max_cycle;Signal;HPM_P1;HPM_P2
2023/01/07 00:01:10;;;;;;;64.85;32.83;;;;;;;;;;5050368;28;20441;-81
2023/01/07 00:03:36;;;;;;;64.90;31.60;;;;;;;;;;4984032;28;20487;-80
2023/01/07 00:06:13;;;;;;;63.67;32.13;;;;;;;;;;5009354;28;20451;-80
2023/01/07 00:08:41;;;;;;;66.70;31.75;;;9.80;99.90;;;;;;5006852;28;20418;-79
2023/01/07 00:11:08;;;;;;;62.35;31.35;;;;;;;;;;4993786;28;20843;-80
2023/01/07 00:13:35;;;;;;;57.37;30.90;;;;;;;;;;4987301;28;20436;-80
2023/01/07 00:16:03;;;;;;;56.63;29.90;;;;;;;;;;5025113;28;20425;-79
2023/01/07 00:18:29;;;;;;;55.22;28.75;;;;;;;;;;5087828;28;20432;-81
2023/01/07 00:20:59;;;;;;;53.38;28.73;;;;;;;;;;5094263;28;20429;-79
2023/01/07 00:23:25;;;;;;;54.00;28.35;;;;;;;;;;4994575;28;20434;-80
2023/01/07 00:25:52;;;;;;;51.80;26.87;;;;;;;;;;5012840;28;20441;-79
2023/01/07 00:28:21;;;;;;;52.33;27.90;;;;;;;;;;5042004;28;20444;-81
2023/01/07 00:30:47;;;;;;;50.78;26.77;;;;;;;;;;4975628;28;20462;-81
2023/01/07 00:33:14;;;;;;;48.37;26.60;;;;;;;;;;4998033;28;20473;-80
2023/01/07 00:35:43;;;;;;;50.50;26.50;;;;;;;;;;4994718;28;20425;-76
2023/01/07 00:38:09;;;;;;;43.40;24.63;;;;;;;;;;4970392;28;20950;-76
2023/01/07 00:40:35;;;;;;;45.80;25.75;;;;;;;;;;5065542;28;20425;-76
2023/01/07 00:43:03;;;;;;;45.83;25.45;;;;;;;;;;5022209;28;20780;-76
2023/01/07 00:45:34;;;;;;;44.17;25.10;;;;;;;;;;5013929;28;20549;-76
2023/01/07 00:48:01;;;;;;;49.50;25.60;;;;;;;;;;5035161;28;20584;-76
2023/01/07 00:50:31;;;;;;;51.97;26.13;;;;;;;;;;5014078;28;20777;-76
2023/01/07 00:52:57;;;;;;;46.45;25.77;;;;;;;;;;5059303;28;20410;-75
2023/01/07 00:55:24;;;;;;;49.08;26.23;;;;;;;;;;5018740;28;20421;-75
2023/01/07 00:57:50;;;;;;;50.67;26.20;;;;;;;;;;4980678;28;20794;-76
2023/01/07 01:00:17;;;;;;;51.03;26.20;;;;;;;;;;5044475;28;20736;-76
2023/01/07 01:02:44;;;;;;;51.03;27.35;;;;;;;;;;5091339;28;20761;-76
2023/01/07 01:05:10;;;;;;;50.92;27.75;;;;;;;;;;5034124;28;20428;-76
2023/01/07 01:07:37;;;;;;;49.42;26.90;;;;;;;;;;5051987;28;20437;-76
2023/01/07 01:10:04;;;;;;;55.03;28.42;;;;;;;;;;5022845;28;20454;-76
2023/01/07 01:12:30;;;;;;;50.15;26.65;;;;;;;;;;5049804;28;20420;-76
2023/01/07 01:14:56;;;;;;;49.70;26.80;;;;;;;;;;5055386;28;20430;-76
2023/01/07 01:17:22;;;;;;;51.25;27.33;;;;;;;;;;4988107;28;20755;-76
2023/01/07 01:19:48;;;;;;;50.00;26.48;;;;;;;;;;5025060;28;20433;-76
2023/01/07 01:22:14;;;;;;;47.90;26.97;;;;;;;;;;5017344;28;20461;-76
2023/01/07 01:24:40;;;;;;;47.30;26.33;;;;;;;;;;4992430;28;20824;-76
2023/01/07 01:27:06;;;;;;;47.70;26.92;;;;;;;;;;4991164;28;20496;-76
2023/01/07 01:29:32;;;;;;;52.80;27.45;;;;;;;;;;5068287;28;20468;-76
2023/01/07 01:31:59;;;;;;;46.45;26.02;;;;;;;;;;5075183;28;20909;-76
2023/01/07 01:34:26;;;;;;;48.30;26.73;;;;;;;;;;4985243;28;20426;-76
2023/01/07 01:36:52;;;;;;;49.20;27.27;;;;;;;;;;5021170;28;20417;-76
2023/01/07 01:39:19;;;;;;;42.97;25.30;;;;;;;;;;5012438;28;20424;-75
2023/01/07 01:41:45;;;;;;;49.00;26.85;;;;;;;;;;4981246;28;20439;-76
2023/01/07 01:44:42;;;;;;;43.13;26.75;;;10.50;99.90;;;;;;5036423;28;20547;-75
2023/01/07 01:47:15;;;;;;;45.28;27.33;;;;;;;;;;4989118;28;20413;-77
2023/01/07 01:49:52;;;;;;;42.25;25.95;;;10.30;99.90;;;;;;4997382;28;20432;-76
2023/01/07 01:52:21;;;;;;;44.53;27.02;;;;;;;;;;5005977;28;20726;-76
2023/01/07 01:54:49;;;;;;;41.50;25.55;;;;;;;;;;5064566;28;20792;-76
2023/01/07 01:57:18;;;;;;;41.60;26.13;;;10.70;99.90;;;;;;5070546;28;20777;-76
2023/01/07 01:59:45;;;;;;;41.30;25.93;;;;;;;;;;5077827;28;20844;-76
2023/01/07 02:02:12;;;;;;;42.78;25.83;;;;;;;;;;4992111;28;20434;-75
2023/01/07 02:04:38;;;;;;;38.20;25.23;;;;;;;;;;4995300;28;20914;-76
2023/01/07 02:07:06;;;;;;;42.75;25.90;;;;;;;;;;4973099;28;20414;-76
2023/01/07 02:09:33;;;;;;;40.17;26.20;;;;;;;;;;4988978;28;20407;-76
2023/01/07 02:12:25;;;;;;;38.20;25.33;;;;;;;;;;4972252;28;20424;-80
2023/01/07 02:15:10;;;;;;;37.47;24.85;;;;;;;;;;4973856;28;20821;-80
2023/01/07 02:17:36;;;;;;;33.95;24.77;;;;;;;;;;5044839;28;20430;-79
2023/01/07 02:20:08;;;;;;;34.72;25.17;;;;;;;;;;4989151;28;20419;-80
2023/01/07 02:23:05;;;;;;;33.75;24.52;;;10.70;99.90;;;;;;5025891;28;20501;-80
2023/01/07 02:25:43;;;;;;;33.42;23.83;;;;;;;;;;4990037;28;20413;-80
2023/01/07 02:28:21;;;;;;;31.83;24.10;;;;;;;;;;5025215;28;20410;-81
2023/01/07 02:31:00;;;;;;;31.63;23.63;;;;;;;;;;4972696;28;20511;-81
2023/01/07 02:33:37;;;;;;;34.28;24.42;;;;;;;;;;4984930;28;20455;-80
2023/01/07 02:36:13;;;;;;;33.60;24.25;;;10.90;99.90;;;;;;5020321;28;20488;-81
2023/01/07 02:38:52;;;;;;;32.13;23.95;;;;;;;;;;4970512;28;20412;-81
2023/01/07 02:41:22;;;;;;;31.67;23.52;;;;;;;;;;4979438;28;20815;-80
2023/01/07 02:44:02;;;;;;;33.55;24.90;;;;;;;;;;4964042;28;21694;-80
2023/01/07 02:47:03;;;;;;;33.13;24.67;;;;;;;;;;5016156;28;20515;-80
2023/01/07 02:49:29;;;;;;;32.88;24.52;;;;;;;;;;5029122;28;20425;-80
2023/01/07 02:51:55;;;;;;;33.30;24.88;;;;;;;;;;5011337;28;20922;-80
2023/01/07 02:54:23;;;;;;;33.40;25.92;;;;;;;;;;4982529;28;20427;-80
2023/01/07 02:56:49;;;;;;;33.23;24.40;;;;;;;;;;4985947;28;20430;-80
2023/01/07 02:59:18;;;;;;;34.55;25.95;;;;;;;;;;5022974;28;20428;-81
2023/01/07 03:01:47;;;;;;;32.28;25.95;;;;;;;;;;5004500;28;20527;-80
2023/01/07 03:04:13;;;;;;;33.58;25.80;;;;;;;;;;5000182;28;20961;-80
2023/01/07 03:06:53;;;;;;;30.67;24.20;;;;;;;;;;4991179;28;20437;-80
2023/01/07 03:09:35;;;;;;;33.25;25.25;;;11.00;99.90;;;;;;5036899;28;20452;-80
2023/01/07 03:12:13;;;;;;;31.38;24.60;;;;;;;;;;5079999;28;20424;-80
2023/01/07 03:14:50;;;;;;;33.40;25.60;;;;;;;;;;5019252;28;20430;-80
2023/01/07 03:17:25;;;;;;;30.50;24.40;;;;;;;;;;5006721;28;20413;-79
2023/01/07 03:19:55;;;;;;;29.75;24.23;;;10.90;99.90;;;;;;5057778;28;20521;-80
2023/01/07 03:22:23;;;;;;;29.20;24.33;;;;;;;;;;5012568;28;20482;-80
2023/01/07 03:24:50;;;;;;;32.38;24.55;;;;;;;;;;4970211;28;20983;-80
2023/01/07 03:27:18;;;;;;;29.48;23.95;;;;;;;;;;4972209;28;20983;-81
2023/01/07 03:29:44;;;;;;;30.90;23.90;;;;;;;;;;4964279;28;20435;-80
2023/01/07 03:32:15;;;;;;;32.13;24.80;;;;;;;;;;4968713;28;20432;-80
2023/01/07 03:34:42;;;;;;;30.37;23.63;;;;;;;;;;4972730;28;20419;-80
2023/01/07 03:37:13;;;;;;;30.50;22.95;;;;;;;;;;5053898;28;20464;-80
2023/01/07 03:39:40;;;;;;;30.88;23.98;;;;;;;;;;5042344;28;20436;-79
2023/01/07 03:44:55;;;;;;;29.05;22.45;;;;;;;;;;5033512;28;20427;-81
2023/01/07 03:47:22;;;;;;;30.70;23.23;;;;;;;;;;5023836;28;20424;-79
2023/01/07 03:49:48;;;;;;;29.48;22.65;;;;;;;;;;5017336;28;20424;-80
2023/01/07 03:52:14;;;;;;;29.13;22.67;;;;;;;;;;5021625;28;20437;-80
2023/01/07 03:54:40;;;;;;;28.38;22.35;;;;;;;;;;4973754;28;20917;-81
2023/01/07 03:57:06;;;;;;;28.52;21.60;;;;;;;;;;4991875;28;20768;-81
2023/01/07 03:59:32;;;;;;;28.27;21.65;;;;;;;;;;4992842;28;20420;-81
2023/01/07 04:01:58;;;;;;;28.73;21.63;;;;;;;;;;5029795;28;20421;-81
2023/01/07 04:04:24;;;;;;;26.95;21.05;;;;;;;;;;5063074;28;20398;-81
2023/01/07 04:06:50;;;;;;;26.08;21.27;;;;;;;;;;5079040;28;20920;-80
2023/01/07 04:09:17;;;;;;;29.23;21.57;;;;;;;;;;5077091;28;20601;-80
2023/01/07 04:11:44;;;;;;;28.50;22.00;;;10.80;99.90;;;;;;5012705;28;20964;-79
2023/01/07 04:14:10;;;;;;;28.52;21.83;;;;;;;;;;4979701;28;20515;-80
2023/01/07 04:16:36;;;;;;;27.38;21.63;;;;;;;;;;5067355;28;20414;-80
2023/01/07 04:19:03;;;;;;;27.70;21.60;;;10.60;99.90;;;;;;5078287;28;20417;-80
2023/01/07 04:21:29;;;;;;;28.23;22.13;;;;;;;;;;5064806;28;20449;-81
2023/01/07 04:23:55;;;;;;;26.02;20.52;;;;;;;;;;4994137;28;20479;-80
2023/01/07 04:26:22;;;;;;;29.42;21.92;;;;;;;;;;4973115;28;20445;-80
2023/01/07 04:28:48;;;;;;;28.38;20.70;;;;;;;;;;5045349;28;20429;-79
2023/01/07 04:31:14;;;;;;;27.25;20.88;;;;;;;;;;5091071;28;20440;-80
2023/01/07 04:33:40;;;;;;;25.90;20.50;;;;;;;;;;5061833;28;20426;-80
2023/01/07 04:36:06;;;;;;;26.77;20.70;;;;;;;;;;5002263;28;21094;-79
2023/01/07 04:38:32;;;;;;;28.02;21.20;;;;;;;;;;4990274;28;20414;-80
2023/01/07 04:40:58;;;;;;;27.35;20.92;;;;;;;;;;4973886;28;20513;-80
2023/01/07 04:43:24;;;;;;;27.40;21.23;;;;;;;;;;4995151;28;20445;-80
2023/01/07 04:45:50;;;;;;;27.33;20.65;;;;;;;;;;4993046;28;20438;-80
2023/01/07 04:48:16;;;;;;;30.30;21.00;;;;;;;;;;4981379;28;20451;-80
2023/01/07 04:50:42;;;;;;;27.85;20.20;;;;;;;;;;4991885;28;20419;-80
2023/01/07 04:53:08;;;;;;;26.60;20.45;;;;;;;;;;4970583;28;20509;-79
2023/01/07 04:55:34;;;;;;;25.92;19.85;;;;;;;;;;4991091;28;20441;-80
2023/01/07 04:58:01;;;;;;;26.02;19.33;;;;;;;;;;5090272;28;20406;-80
2023/01/07 05:00:27;;;;;;;25.67;20.13;;;;;;;;;;5060713;28;20428;-81
2023/01/07 05:02:53;;;;;;;27.73;20.27;;;;;;;;;;5009492;28;20992;-80
2023/01/07 05:05:19;;;;;;;25.15;19.40;;;;;;;;;;4984970;28;20447;-81
2023/01/07 05:07:45;;;;;;;23.45;18.98;;;;;;;;;;4972842;28;20451;-80
2023/01/07 05:10:11;;;;;;;26.10;18.40;;;;;;;;;;4974219;28;20410;-76
2023/01/07 05:12:37;;;;;;;26.45;19.42;;;;;;;;;;5000018;28;20544;-76
2023/01/07 05:15:03;;;;;;;25.00;18.02;;;;;;;;;;4992241;28;20951;-76
2023/01/07 05:17:30;;;;;;;21.20;17.73;;;;;;;;;;5003238;28;20425;-76
2023/01/07 05:19:56;;;;;;;25.92;17.67;;;;;;;;;;4973496;28;20913;-76
2023/01/07 05:22:22;;;;;;;21.48;17.13;;;;;;;;;;4979881;28;20428;-76
2023/01/07 05:24:48;;;;;;;21.30;16.30;;;;;;;;;;5004702;28;20421;-76
2023/01/07 05:27:14;;;;;;;20.67;16.88;;;;;;;;;;4980431;28;21278;-76
2023/01/07 05:29:40;;;;;;;21.25;16.48;;;;;;;;;;5069657;28;20881;-76
2023/01/07 05:32:06;;;;;;;20.83;16.23;;;;;;;;;;5000361;28;20420;-76
2023/01/07 05:34:32;;;;;;;20.67;16.42;;;;;;;;;;5058680;28;20418;-76
2023/01/07 05:36:59;;;;;;;22.42;15.75;;;;;;;;;;5013895;28;20420;-76
2023/01/07 05:39:25;;;;;;;21.42;15.52;;;;;;;;;;5039244;28;20418;-76
2023/01/07 05:41:51;;;;;;;19.70;15.35;;;;;;;;;;5042123;28;20853;-80
2023/01/07 05:44:17;;;;;;;21.57;16.07;;;;;;;;;;5041254;28;20948;-80
2023/01/07 05:46:43;;;;;;;20.10;15.02;;;;;;;;;;4985149;28;20512;-80
2023/01/07 05:49:09;;;;;;;20.17;14.50;;;;;;;;;;4984360;28;20824;-81
2023/01/07 05:51:35;;;;;;;20.73;14.90;;;;;;;;;;4952910;28;20456;-81
2023/01/07 05:54:01;;;;;;;18.35;13.77;;;;;;;;;;4970125;28;20451;-80
2023/01/07 05:56:27;;;;;;;19.73;14.90;;;;;;;;;;5029543;28;20449;-81
2023/01/07 05:58:53;;;;;;;20.00;14.00;;;;;;;;;;5016103;28;20435;-81
2023/01/07 06:01:19;;;;;;;19.30;14.18;;;;;;;;;;4969865;28;20515;-81
2023/01/07 06:03:45;;;;;;;19.95;15.43;;;;;;;;;;4954421;28;20401;-80
2023/01/07 06:06:12;;;;;;;21.25;14.77;;;;;;;;;;5067096;28;20915;-80
2023/01/07 06:08:38;;;;;;;20.88;14.55;;;;;;;;;;5069022;28;20433;-80
2023/01/07 06:11:05;;;;;;;20.08;14.40;;;;;;;;;;5059576;28;20432;-79
2023/01/07 06:13:31;;;;;;;20.65;14.75;;;;;;;;;;4999236;28;20438;-80
2023/01/07 06:16:04;;;;;;;16.83;13.30;;;;;;;;;;4995212;28;20492;-81
2023/01/07 06:18:30;;;;;;;21.15;13.82;;;;;;;;;;5023850;28;20422;-81
2023/01/07 06:20:57;;;;;;;18.95;13.00;;;;;;;;;;4961829;28;20495;-81
2023/01/07 06:23:23;;;;;;;19.58;12.60;;;;;;;;;;4974597;28;20411;-81
2023/01/07 06:25:49;;;;;;;25.70;13.90;;;;;;;;;;4972851;28;20925;-81
2023/01/07 06:28:15;;;;;;;21.57;12.90;;;;;;;;;;5046132;28;20501;-80
2023/01/07 06:30:43;;;;;;;24.63;12.40;;;;;;;;;;5075866;28;20480;-81
2023/01/07 06:33:16;;;;;;;22.13;13.57;;;;;;;;;;4973335;28;20765;-81
2023/01/07 06:35:43;;;;;;;25.73;13.05;;;;;;;;;;4986721;28;20517;-80
2023/01/07 06:38:09;;;;;;;19.15;12.63;;;;;;;;;;4983809;28;20500;-80
2023/01/07 06:40:36;;;;;;;17.63;13.02;;;;;;;;;;4973098;28;20422;-80
2023/01/07 06:43:02;;;;;;;18.30;13.27;;;;;;;;;;4986608;28;20425;-81
2023/01/07 06:45:28;;;;;;;19.58;13.45;;;;;;;;;;5020712;28;20830;-80
2023/01/07 06:47:56;;;;;;;17.58;12.07;;;;;;;;;;5064153;28;20495;-80
2023/01/07 06:50:22;;;;;;;15.48;11.60;;;;;;;;;;4971339;28;20424;-80
2023/01/07 06:52:48;;;;;;;16.92;12.15;;;;;;;;;;5031175;28;20401;-80
2023/01/07 06:55:14;;;;;;;23.25;12.32;;;;;;;;;;4989518;28;20428;-81
2023/01/07 06:57:40;;;;;;;16.75;11.90;;;;;;;;;;4970683;28;20507;-80
2023/01/07 07:00:07;;;;;;;15.88;11.48;;;;;;;;;;4953979;28;20422;-80
2023/01/07 07:02:33;;;;;;;18.63;12.77;;;;;;;;;;4953385;28;20515;-80
2023/01/07 07:04:59;;;;;;;19.37;12.67;;;;;;;;;;4970073;28;20414;-80
2023/01/07 07:07:25;;;;;;;15.93;12.02;;;;;;;;;;5058316;28;20402;-79
2023/01/07 07:09:51;;;;;;;15.95;11.85;;;;;;;;;;5035834;28;20420;-80
2023/01/07 07:12:18;;;;;;;14.38;11.38;;;;;;;;;;4967782;28;20425;-81
2023/01/07 07:14:44;;;;;;;18.10;11.55;;;;;;;;;;5010048;28;20443;-80
2023/01/07 07:17:10;;;;;;;16.25;11.18;;;;;;;;;;4989512;28;20914;-81
2023/01/07 07:19:36;;;;;;;17.70;11.32;;;;;;;;;;4972596;28;20418;-80
2023/01/07 07:22:03;;;;;;;16.20;11.25;;;;;;;;;;5031220;28;20913;-80
2023/01/07 07:24:29;;;;;;;14.80;11.55;;;;;;;;;;5016623;28;20410;-80
2023/01/07 07:26:55;;;;;;;14.25;11.23;;;;;;;;;;4987761;28;20454;-80
2023/01/07 07:29:21;;;;;;;13.27;10.67;;;;;;;;;;5017712;28;20416;-79
2023/01/07 07:31:47;;;;;;;14.90;10.57;;;;;;;;;;4995782;28;20422;-79
2023/01/07 07:34:13;;;;;;;14.55;10.70;;;;;;;;;;4968498;28;20432;-80
2023/01/07 07:36:39;;;;;;;13.93;10.55;;;;;;;;;;5015607;28;20562;-80
2023/01/07 07:39:08;;;;;;;13.40;10.23;;;;;;;;;;5045720;28;20437;-80
2023/01/07 07:41:34;;;;;;;16.17;10.27;;;;;;;;;;4982678;28;20925;-77
2023/01/07 07:44:00;;;;;;;14.05;9.98;;;;;;;;;;4976377;28;20424;-77
2023/01/07 07:46:26;;;;;;;13.57;9.73;;;;;;;;;;4982253;28;20453;-77
2023/01/07 07:48:52;;;;;;;12.20;9.23;;;;;;;;;;5014533;28;20424;-76
2023/01/07 07:51:18;;;;;;;12.65;9.68;;;;;;;;;;5033489;28;20414;-81
2023/01/07 07:53:44;;;;;;;14.93;9.80;;;;;;;;;;5036289;28;20418;-81
2023/01/07 07:56:11;;;;;;;15.65;10.30;;;;;;;;;;5010969;28;20910;-83
2023/01/07 07:58:37;;;;;;;12.90;9.38;;;;;;;;;;4990445;28;20443;-83
2023/01/07 08:01:03;;;;;;;12.82;9.40;;;;;;;;;;4960366;28;20427;-84
2023/01/07 08:03:29;;;;;;;11.48;8.90;;;;;;;;;;4989601;28;20458;-83
2023/01/07 08:05:55;;;;;;;11.18;9.38;;;;;;;;;;4989702;28;20475;-83
2023/01/07 08:08:21;;;;;;;12.60;9.07;;;;;;;;;;4999888;28;20441;-82
2023/01/07 08:10:47;;;;;;;12.38;9.13;;;;;;;;;;4990645;28;20420;-82
2023/01/07 08:13:13;;;;;;;12.15;8.90;;;;;;;;;;4990958;28;20411;-82
2023/01/07 08:15:39;;;;;;;15.30;9.55;;;;;;;;;;5029288;28;20467;-82
2023/01/07 08:18:07;;;;;;;13.68;9.35;;;;;;;;;;4962971;28;20428;-82
2023/01/07 08:20:34;;;;;;;12.73;8.50;;;;;;;;;;4967980;28;20434;-82
2023/01/07 08:23:01;;;;;;;12.80;8.65;;;;;;;;;;4971511;28;20572;-81
2023/01/07 08:25:27;;;;;;;16.05;10.68;;;;;;;;;;4998537;28;20433;-77
2023/01/07 08:28:00;;;;;;;12.65;7.50;;;;;;;;;;4987647;28;20749;-77
2023/01/07 08:30:29;;;;;;;10.23;7.25;;;;;;;;;;4979903;28;20427;-76
2023/01/07 08:32:56;;;;;;;11.00;7.22;;;;;;;;;;4970771;28;20755;-77
2023/01/07 08:35:22;;;;;;;10.93;7.05;;;;;;;;;;5034174;28;20440;-77
2023/01/07 08:37:48;;;;;;;12.40;7.45;;;;;;;;;;5060944;28;20901;-78
2023/01/07 08:40:14;;;;;;;9.05;5.97;;;;;;;;;;5039878;28;20421;-77
2023/01/07 08:42:41;;;;;;;11.02;6.85;;;;;;;;;;4992986;28;20439;-78
2023/01/07 08:45:08;;;;;;;11.52;7.10;;;;;;;;;;4973855;28;20450;-77
2023/01/07 08:47:34;;;;;;;10.23;6.67;;;;;;;;;;5087394;28;20959;-77
2023/01/07 08:50:00;;;;;;;9.48;6.47;;;;;;;;;;5029975;28;20944;-77
2023/01/07 08:52:27;;;;;;;8.97;6.07;;;;;;;;;;4983193;28;20437;-77
2023/01/07 08:54:53;;;;;;;12.27;6.57;;;;;;;;;;5048017;28;20917;-77
2023/01/07 08:57:19;;;;;;;9.47;6.83;;;;;;;;;;5038748;28;20504;-78
2023/01/07 08:59:45;;;;;;;10.18;6.88;;;;;;;;;;5022742;28;20763;-77
2023/01/07 09:02:16;;;;;;;10.15;6.35;;;9.90;99.90;;;;;;4973323;28;20505;-77
2023/01/07 09:04:42;;;;;;;9.93;6.38;;;;;;;;;;5025698;28;20414;-76
2023/01/07 09:07:08;;;;;;;8.32;6.03;;;;;;;;;;4992614;28;20423;-77
2023/01/07 09:09:35;;;;;;;8.45;5.75;;;;;;;;;;4980283;28;20423;-77
2023/01/07 09:12:01;;;;;;;8.85;6.20;;;;;;;;;;4988035;28;20904;-77
2023/01/07 09:14:27;;;;;;;8.77;6.07;;;;;;;;;;4963742;28;20812;-79
2023/01/07 09:16:53;;;;;;;8.30;5.70;;;;;;;;;;4973124;28;20435;-77
2023/01/07 09:19:19;;;;;;;10.88;5.70;;;;;;;;;;4979740;28;20766;-79
2023/01/07 09:21:46;;;;;;;9.18;5.60;;;;;;;;;;4970341;28;20422;-78
2023/01/07 09:24:12;;;;;;;8.82;5.22;;;;;;;;;;4958907;28;20435;-78
2023/01/07 09:26:38;;;;;;;9.65;5.25;;;;;;;;;;4963221;28;20423;-78
2023/01/07 09:29:04;;;;;;;9.93;5.07;;;;;;;;;;4989200;28;20417;-77
2023/01/07 09:31:30;;;;;;;8.45;5.20;;;;;;;;;;4993826;28;20937;-77
2023/01/07 09:33:56;;;;;;;7.20;5.00;;;;;;;;;;4988777;28;20420;-77
2023/01/07 09:36:22;;;;;;;7.87;5.00;;;;;;;;;;5000925;28;20414;-76
2023/01/07 09:38:48;;;;;;;6.82;4.72;;;;;;;;;;4978196;28;20911;-77
2023/01/07 09:41:31;;;;;;;8.90;6.60;;;;;;;;;;5003427;28;20429;-77
2023/01/07 09:44:27;;;;;;;8.73;5.30;;;10.20;99.90;;;;;;4971230;28;20895;-78
2023/01/07 09:46:56;;;;;;;7.75;5.15;;;10.00;99.90;;;;;;5013134;28;20422;-78
2023/01/07 09:49:27;;;;;;;5.65;4.38;;;;;;;;;;5013718;28;20427;-78
2023/01/07 09:51:59;;;;;;;7.20;4.47;;;;;;;;;;4993297;28;20434;-75
2023/01/07 09:54:35;;;;;;;7.35;4.22;;;;;;;;;;5028052;28;20441;-78
2023/01/07 09:57:01;;;;;;;5.93;4.10;;;;;;;;;;5030877;28;20517;-78
2023/01/07 09:59:28;;;;;;;6.47;3.92;;;;;;;;;;5042411;28;20397;-79
2023/01/07 10:01:58;;;;;;;5.78;4.15;;;;;;;;;;4990457;28;20421;-77
2023/01/07 10:04:31;;;;;;;7.25;4.25;;;;;;;;;;5030629;28;20789;-75
2023/01/07 10:07:13;;;;;;;7.00;4.33;;;;;;;;;;5062325;28;20421;-76
2023/01/07 10:09:42;;;;;;;5.97;4.10;;;;;;;;;;5049456;28;20430;-78
2023/01/07 10:12:14;;;;;;;7.40;4.10;;;;;;;;;;5054129;28;20856;-76
2023/01/07 10:15:08;;;;;;;6.57;3.90;;;10.50;99.90;;;;;;4998088;28;20433;-76
2023/01/07 10:17:47;;;;;;;6.47;3.75;;;;;;;;;;5016363;28;20467;-78
2023/01/07 10:20:21;;;;;;;5.47;3.67;;;;;;;;;;5041369;28;20434;-78
2023/01/07 10:22:53;;;;;;;6.68;3.70;;;;;;;;;;5022765;28;20439;-77
2023/01/07 10:25:27;;;;;;;6.13;3.85;;;;;;;;;;5037519;28;20418;-76
2023/01/07 10:27:55;;;;;;;5.68;3.70;;;;;;;;;;5064595;28;20418;-78
2023/01/07 10:30:24;;;;;;;5.60;3.93;;;;;;;;;;5022398;28;20428;-78
2023/01/07 10:32:54;;;;;;;5.80;3.73;;;;;;;;;;5056313;28;20440;-77
2023/01/07 10:35:22;;;;;;;7.38;3.83;;;;;;;;;;5041516;28;20441;-77
2023/01/07 10:37:48;;;;;;;6.13;3.50;;;;;;;;;;5058028;28;20434;-77
2023/01/07 10:40:17;;;;;;;4.90;3.63;;;;;;;;;;5042863;28;20425;-77
2023/01/07 10:42:58;;;;;;;5.32;3.60;;;;;;;;;;5004208;28;20430;-76
2023/01/07 10:45:28;;;;;;;5.90;3.45;;;;;;;;;;5013269;28;20481;-78
2023/01/07 10:48:00;;;;;;;8.23;4.00;;;;;;;;;;5007518;28;21347;-78
2023/01/07 10:50:49;;;;;;;5.55;3.67;;;;;;;;;;5045366;28;20410;-77
2023/01/07 10:53:21;;;;;;;5.50;3.53;;;;;;;;;;5014211;28;20414;-77
2023/01/07 10:56:04;;;;;;;5.68;3.50;;;;;;;;;;5033889;28;20952;-77
2023/01/07 10:58:34;;;;;;;4.72;3.20;;;;;;;;;;5055277;28;20425;-78
2023/01/07 11:01:04;;;;;;;4.50;3.03;;;;;;;;;;4983755;28;20417;-78
2023/01/07 11:03:33;;;;;;;7.43;3.20;;;;;;;;;;5021603;28;20444;-81
2023/01/07 11:06:04;;;;;;;5.18;2.70;;;10.80;99.90;;;;;;4985268;28;20419;-78
2023/01/07 11:08:41;;;;;;;4.93;3.00;;;;;;;;;;4982961;28;20430;-75
2023/01/07 11:11:11;;;;;;;4.88;2.80;;;;;;;;;;4983742;28;20423;-78
2023/01/07 11:13:38;;;;;;;4.87;2.90;;;;;;;;;;4987649;28;20524;-78
2023/01/07 11:16:12;;;;;;;5.35;3.13;;;;;;;;;;4973192;28;20455;-77
2023/01/07 11:18:53;;;;;;;5.55;3.03;;;;;;;;;;5005997;28;20432;-78
2023/01/07 11:21:37;;;;;;;4.93;2.70;;;11.20;99.90;;;;;;4952367;28;20451;-79
2023/01/07 11:24:26;;;;;;;4.10;2.70;;;;;;;;;;4958170;28;20440;-77
2023/01/07 11:26:58;;;;;;;4.90;2.35;;;;;;;;;;5044958;28;20426;-78
2023/01/07 11:29:26;;;;;;;6.05;2.58;;;;;;;;;;5060554;28;20390;-78
2023/01/07 11:31:57;;;;;;;5.28;2.50;;;;;;;;;;5042853;28;20468;-78
2023/01/07 11:34:23;;;;;;;4.83;2.50;;;;;;;;;;4978189;28;20433;-78
2023/01/07 11:36:49;;;;;;;4.80;2.45;;;;;;;;;;4985647;28;20458;-78
2023/01/07 11:39:23;;;;;;;3.65;2.35;;;;;;;;;;4971060;28;20445;-77
2023/01/07 11:41:53;;;;;;;3.50;2.20;;;;;;;;;;4971903;28;20465;-79
2023/01/07 11:44:20;;;;;;;3.90;2.38;;;;;;;;;;5030087;28;20479;-78
2023/01/07 11:46:46;;;;;;;3.38;2.25;;;;;;;;;;5075493;28;20409;-77
2023/01/07 11:49:41;;;;;;;4.70;2.17;;;;;;;;;;5034907;28;20769;-79
2023/01/07 11:52:16;;;;;;;3.33;2.30;;;;;;;;;;5072157;28;20416;-77
2023/01/07 11:54:42;;;;;;;4.10;2.50;;;;;;;;;;5019560;28;20851;-77
2023/01/07 11:57:13;;;;;;;3.90;2.50;;;;;;;;;;5020835;28;20410;-77
2023/01/07 11:59:39;;;;;;;4.28;2.40;;;;;;;;;;5046664;28;20421;-76
2023/01/07 12:02:20;;;;;;;3.35;2.25;;;;;;;;;;4993324;28;20771;-77
2023/01/07 12:04:47;;;;;;;3.88;2.20;;;;;;;;;;4968302;28;20421;-76
2023/01/07 12:07:15;;;;;;;4.57;2.53;;;11.10;99.90;;;;;;5009710;28;20421;-77
2023/01/07 12:09:42;;;;;;;4.40;2.08;;;11.00;99.90;;;;;;5000991;28;20423;-77
2023/01/07 12:12:30;;;;;;;3.95;2.00;;;;;;;;;;4998832;28;20434;-77
2023/01/07 12:15:16;;;;;;;4.43;2.00;;;;;;;;;;5018703;28;20508;-77
2023/01/07 12:17:46;;;;;;;4.50;2.00;;;11.30;99.90;;;;;;5055972;28;20414;-76
2023/01/07 12:20:27;;;;;;;3.20;1.92;;;;;;;;;;5012062;28;20431;-77
2023/01/07 12:23:22;;;;;;;4.20;1.90;;;;;;;;;;5018627;28;20425;-77
2023/01/07 12:26:07;;;;;;;5.40;2.10;;;;;;;;;;4981351;28;20428;-77
2023/01/07 12:28:56;;;;;;;4.97;2.00;;;11.50;99.90;;;;;;4972589;28;21059;-77
2023/01/07 12:31:28;;;;;;;5.53;2.00;;;;;;;;;;4974476;28;20425;-76
2023/01/07 12:34:00;;;;;;;5.05;1.85;;;;;;;;;;5081904;28;20441;-77
2023/01/07 12:36:34;;;;;;;4.03;2.10;;;;;;;;;;5055732;28;20440;-77
2023/01/07 12:39:02;;;;;;;3.50;2.00;;;;;;;;;;4982996;28;20801;-77
2023/01/07 12:41:37;;;;;;;3.50;2.05;;;11.40;99.90;;;;;;4998081;28;20943;-77
2023/01/07 12:44:18;;;;;;;5.20;1.90;;;11.10;99.90;;;;;;5068934;28;20453;-77
2023/01/07 12:47:03;;;;;;;3.03;1.80;;;11.60;99.90;;;;;;5024792;28;20766;-76
2023/01/07 12:49:32;;;;;;;3.47;2.00;;;;;;;;;;4995406;28;20414;-77
2023/01/07 12:52:12;;;;;;;3.80;2.10;;;;;;;;;;4980752;28;20425;-77
2023/01/07 12:55:12;;;;;;;4.07;2.00;;;11.20;99.90;;;;;;5000155;28;20509;-78
2023/01/07 12:57:39;;;;;;;3.43;2.13;;;;;;;;;;5052125;28;20469;-78
2023/01/07 13:00:24;;;;;;;3.42;2.13;;;;;;;;;;4994532;28;20517;-75
2023/01/07 13:03:06;;;;;;;5.87;2.10;;;;;;;;;;4977303;28;20980;-77
2023/01/07 13:05:35;;;;;;;4.03;2.42;;;;;;;;;;4983517;28;20428;-76
2023/01/07 13:08:01;;;;;;;3.42;2.10;;;;;;;;;;4964073;28;20523;-76
2023/01/07 13:10:35;;;;;;;4.40;2.63;;;;;;;;;;5033634;28;20413;-76
2023/01/07 13:13:04;;;;;;;3.55;2.28;;;;;;;;;;5042402;28;20516;-76
2023/01/07 13:15:32;;;;;;;3.42;2.10;;;;;;;;;;4995999;28;20438;-76
2023/01/07 13:18:13;;;;;;;3.60;2.20;;;;;;;;;;4995322;28;20481;-76
2023/01/07 13:20:39;;;;;;;3.63;2.00;;;;;;;;;;5021646;28;20461;-76
2023/01/07 13:23:07;;;;;;;4.78;2.22;;;;;;;;;;5002164;28;20421;-75
2023/01/07 13:25:45;;;;;;;4.10;2.22;;;;;;;;;;5001975;28;20432;-76
2023/01/07 13:28:24;;;;;;;4.95;2.50;;;;;;;;;;5016029;28;20417;-76
2023/01/07 13:31:08;;;;;;;3.63;2.30;;;;;;;;;;4965922;28;20440;-76
2023/01/07 13:33:37;;;;;;;4.07;2.20;;;;;;;;;;4993120;28;20418;-77
2023/01/07 13:36:16;;;;;;;2.83;1.77;;;;;;;;;;4977042;28;20423;-76
2023/01/07 13:39:01;;;;;;;3.03;1.90;;;;;;;;;;5022685;28;20402;-76
2023/01/07 13:41:57;;;;;;;2.97;1.80;;;11.20;99.90;;;;;;5015678;28;20418;-76
2023/01/07 13:44:38;;;;;;;3.28;1.98;;;;;;;;;;4988496;28;20430;-77
2023/01/07 13:47:08;;;;;;;4.40;2.17;;;11.20;99.90;;;;;;4996779;28;20429;-77
2023/01/07 13:49:35;;;;;;;3.08;1.90;;;;;;;;;;4994655;28;20450;-77
2023/01/07 13:52:16;;;;;;;3.43;1.80;;;11.00;99.90;;;;;;4994610;28;20422;-76
2023/01/07 13:54:51;;;;;;;3.47;1.87;;;;;;;;;;4988844;28;20435;-76
2023/01/07 13:57:24;;;;;;;2.83;1.67;;;;;;;;;;5013754;28;20435;-76
2023/01/07 13:59:52;;;;;;;3.88;1.90;;;11.10;99.90;;;;;;4975987;28;20428;-76
2023/01/07 14:02:24;;;;;;;3.83;2.00;;;10.90;99.90;;;;;;4965130;28;20447;-76
2023/01/07 14:04:50;;;;;;;2.78;1.60;;;;;;;;;;5013690;28;20414;-76
2023/01/07 14:07:17;;;;;;;3.60;1.80;;;;;;;;;;4994345;28;20428;-76
2023/01/07 14:09:43;;;;;;;3.95;1.80;;;;;;;;;;4969110;28;20489;-76
2023/01/07 14:12:21;;;;;;;4.68;1.88;;;;;;;;;;5040936;28;20504;-76
2023/01/07 14:14:47;;;;;;;3.50;2.00;;;;;;;;;;5040498;28;20442;-76
2023/01/07 14:17:13;;;;;;;3.25;1.98;;;;;;;;;;5041399;28;20418;-76
2023/01/07 14:19:43;;;;;;;4.63;1.85;;;;;;;;;;5029512;28;20525;-75
2023/01/07 14:22:27;;;;;;;5.70;2.00;;;;;;;;;;4997974;28;21047;-76
2023/01/07 14:24:56;;;;;;;3.88;2.00;;;;;;;;;;4992062;28;20442;-76
2023/01/07 14:27:32;;;;;;;4.03;2.00;;;;;;;;;;4970970;28;20453;-76
2023/01/07 14:29:59;;;;;;;4.45;2.03;;;;;;;;;;4991360;28;20430;-76
2023/01/07 14:32:25;;;;;;;3.97;1.90;;;;;;;;;;4965859;28;20426;-77
2023/01/07 14:35:00;;;;;;;4.10;1.98;;;;;;;;;;4979980;28;20472;-76